sensor_id;sensor_type;location;lat;lon;timestamp;P1;durP1;ratioP1;P2;durP2;ratioP2
49015;SDS011;34830;44.064;12.566;2022-11-25T00:03:33;37.75;;;23.08;;
49015;SDS011;34830;44.064;12.566;2022-11-25T00:06:06;42.72;;;23.42;;
49015;SDS011;34830;44.064;12.566;2022-11-25T00:08:40;42.03;;;22.63;;
49015;SDS011;34830;44.064;12.566;2022-11-25T00:11:07;40.42;;;23.42;;
49015;SDS011;34830;44.064;12.566;2022-11-25T00:13:34;36.92;;;22.40;;
49015;SDS011;34830;44.064;12.566;2022-11-25T00:16:01;34.00;;;20.65;;
49015;SDS011;34830;44.064;12.566;2022-11-25T00:18:28;37.97;;;20.83;;
49015;SDS011;34830;44.064;12.566;2022-11-25T00:20:54;35.13;;;20.92;;
49015;SDS011;34830;44.064;12.566;2022-11-25T00:23:20;38.03;;;22.13;;
49015;SDS011;34830;44.064;12.566;2022-11-25T00:25:46;37.35;;;23.20;;
49015;SDS011;34830;44.064;12.566;2022-11-25T00:28:13;41.92;;;22.83;;
49015;SDS011;34830;44.064;12.566;2022-11-25T00:30:39;37.35;;;22.63;;
49015;SDS011;34830;44.064;12.566;2022-11-25T00:33:05;37.45;;;21.70;;
49015;SDS011;34830;44.064;12.566;2022-11-25T00:35:33;34.70;;;19.95;;
49015;SDS011;34830;44.064;12.566;2022-11-25T00:37:59;34.13;;;20.55;;
49015;SDS011;34830;44.064;12.566;2022-11-25T00:40:25;32.83;;;21.17;;
49015;SDS011;34830;44.064;12.566;2022-11-25T00:42:51;32.72;;;20.38;;
49015;SDS011;34830;44.064;12.566;2022-11-25T00:45:36;32.83;;;20.33;;
49015;SDS011;34830;44.064;12.566;2022-11-25T00:48:05;34.30;;;19.50;;
49015;SDS011;34830;44.064;12.566;2022-11-25T00:50:31;33.85;;;19.83;;
49015;SDS011;34830;44.064;12.566;2022-11-25T00:52:57;33.42;;;19.85;;
49015;SDS011;34830;44.064;12.566;2022-11-25T00:55:24;30.88;;;19.42;;
49015;SDS011;34830;44.064;12.566;2022-11-25T00:57:50;31.38;;;19.35;;
49015;SDS011;34830;44.064;12.566;2022-11-25T01:00:16;31.75;;;19.83;;
49015;SDS011;34830;44.064;12.566;2022-11-25T01:02:42;30.92;;;19.33;;
49015;SDS011;34830;44.064;12.566;2022-11-25T01:05:11;29.73;;;17.50;;
49015;SDS011;34830;44.064;12.566;2022-11-25T01:07:37;30.23;;;16.55;;
49015;SDS011;34830;44.064;12.566;2022-11-25T01:10:03;29.65;;;17.02;;
49015;SDS011;34830;44.064;12.566;2022-11-25T01:12:30;24.55;;;15.57;;
49015;SDS011;34830;44.064;12.566;2022-11-25T01:14:56;24.73;;;14.55;;
49015;SDS011;34830;44.064;12.566;2022-11-25T01:17:22;23.13;;;14.45;;
49015;SDS011;34830;44.064;12.566;2022-11-25T01:19:48;25.13;;;14.57;;
49015;SDS011;34830;44.064;12.566;2022-11-25T01:22:14;25.70;;;15.82;;
49015;SDS011;34830;44.064;12.566;2022-11-25T01:24:41;23.33;;;14.73;;
49015;SDS011;34830;44.064;12.566;2022-11-25T01:27:07;20.88;;;13.10;;
49015;SDS011;34830;44.064;12.566;2022-11-25T01:29:33;23.45;;;13.10;;
49015;SDS011;34830;44.064;12.566;2022-11-25T01:31:59;20.70;;;13.40;;
49015;SDS011;34830;44.064;12.566;2022-11-25T01:34:26;23.38;;;14.23;;
49015;SDS011;34830;44.064;12.566;2022-11-25T01:36:56;19.92;;;13.05;;
49015;SDS011;34830;44.064;12.566;2022-11-25T01:39:23;22.38;;;14.48;;
49015;SDS011;34830;44.064;12.566;2022-11-25T01:41:50;22.08;;;13.63;;
49015;SDS011;34830;44.064;12.566;2022-11-25T01:44:17;23.42;;;14.73;;
49015;SDS011;34830;44.064;12.566;2022-11-25T01:46:56;23.48;;;13.85;;
49015;SDS011;34830;44.064;12.566;2022-11-25T01:49:47;21.77;;;13.02;;
49015;SDS011;34830;44.064;12.566;2022-11-25T01:52:21;18.75;;;12.50;;
49015;SDS011;34830;44.064;12.566;2022-11-25T01:54:59;15.48;;;10.45;;
49015;SDS011;34830;44.064;12.566;2022-11-25T01:58:13;17.27;;;11.73;;
49015;SDS011;34830;44.064;12.566;2022-11-25T02:00:35;19.30;;;10.35;;
49015;SDS011;34830;44.064;12.566;2022-11-25T02:03:03;17.33;;;10.82;;
49015;SDS011;34830;44.064;12.566;2022-11-25T02:05:41;19.88;;;11.40;;
49015;SDS011;34830;44.064;12.566;2022-11-25T02:08:13;19.40;;;11.57;;
49015;SDS011;34830;44.064;12.566;2022-11-25T02:10:40;21.30;;;13.18;;
49015;SDS011;34830;44.064;12.566;2022-11-25T02:13:08;19.25;;;12.38;;
49015;SDS011;34830;44.064;12.566;2022-11-25T02:15:35;20.73;;;12.38;;
49015;SDS011;34830;44.064;12.566;2022-11-25T02:18:03;21.17;;;12.88;;
49015;SDS011;34830;44.064;12.566;2022-11-25T02:20:29;21.73;;;11.85;;
49015;SDS011;34830;44.064;12.566;2022-11-25T02:25:44;19.85;;;12.55;;
49015;SDS011;34830;44.064;12.566;2022-11-25T02:28:20;17.33;;;11.47;;
49015;SDS011;34830;44.064;12.566;2022-11-25T02:30:48;20.98;;;10.95;;
49015;SDS011;34830;44.064;12.566;2022-11-25T02:33:14;19.15;;;12.07;;
49015;SDS011;34830;44.064;12.566;2022-11-25T02:35:42;22.10;;;11.23;;
49015;SDS011;34830;44.064;12.566;2022-11-25T02:38:56;17.75;;;11.18;;
49015;SDS011;34830;44.064;12.566;2022-11-25T02:41:09;17.85;;;12.10;;
49015;SDS011;34830;44.064;12.566;2022-11-25T02:43:49;19.48;;;11.90;;
49015;SDS011;34830;44.064;12.566;2022-11-25T02:46:18;18.83;;;11.70;;
49015;SDS011;34830;44.064;12.566;2022-11-25T02:48:45;18.90;;;11.15;;
49015;SDS011;34830;44.064;12.566;2022-11-25T02:51:13;18.08;;;10.70;;
49015;SDS011;34830;44.064;12.566;2022-11-25T02:53:41;20.33;;;12.02;;
49015;SDS011;34830;44.064;12.566;2022-11-25T02:56:09;17.13;;;11.98;;
49015;SDS011;34830;44.064;12.566;2022-11-25T02:58:37;20.75;;;12.05;;
49015;SDS011;34830;44.064;12.566;2022-11-25T03:01:03;20.90;;;12.52;;
49015;SDS011;34830;44.064;12.566;2022-11-25T03:03:29;20.88;;;12.48;;
49015;SDS011;34830;44.064;12.566;2022-11-25T03:05:55;20.35;;;12.00;;
49015;SDS011;34830;44.064;12.566;2022-11-25T03:08:23;20.17;;;11.57;;
49015;SDS011;34830;44.064;12.566;2022-11-25T03:10:49;19.25;;;13.15;;
49015;SDS011;34830;44.064;12.566;2022-11-25T03:13:15;15.95;;;9.20;;
49015;SDS011;34830;44.064;12.566;2022-11-25T03:15:42;16.05;;;9.23;;
49015;SDS011;34830;44.064;12.566;2022-11-25T03:18:08;18.13;;;9.77;;
49015;SDS011;34830;44.064;12.566;2022-11-25T03:20:34;15.55;;;9.63;;
49015;SDS011;34830;44.064;12.566;2022-11-25T03:23:02;14.90;;;8.77;;
49015;SDS011;34830;44.064;12.566;2022-11-25T03:25:29;13.85;;;7.38;;
49015;SDS011;34830;44.064;12.566;2022-11-25T03:27:56;12.90;;;6.97;;
49015;SDS011;34830;44.064;12.566;2022-11-25T03:30:24;9.57;;;5.80;;
49015;SDS011;34830;44.064;12.566;2022-11-25T03:32:55;11.00;;;5.55;;
49015;SDS011;34830;44.064;12.566;2022-11-25T03:35:21;12.23;;;7.93;;
49015;SDS011;34830;44.064;12.566;2022-11-25T03:37:48;13.85;;;8.38;;
49015;SDS011;34830;44.064;12.566;2022-11-25T03:40:15;10.25;;;6.55;;
49015;SDS011;34830;44.064;12.566;2022-11-25T03:42:41;12.57;;;6.68;;
49015;SDS011;34830;44.064;12.566;2022-11-25T03:45:09;12.63;;;7.65;;
49015;SDS011;34830;44.064;12.566;2022-11-25T03:47:38;15.48;;;8.48;;
49015;SDS011;34830;44.064;12.566;2022-11-25T03:50:06;18.88;;;9.05;;
49015;SDS011;34830;44.064;12.566;2022-11-25T03:52:33;14.65;;;8.70;;
49015;SDS011;34830;44.064;12.566;2022-11-25T03:54:59;12.35;;;8.20;;
49015;SDS011;34830;44.064;12.566;2022-11-25T03:57:29;14.57;;;8.13;;
49015;SDS011;34830;44.064;12.566;2022-11-25T03:59:55;11.95;;;7.30;;
49015;SDS011;34830;44.064;12.566;2022-11-25T04:02:21;9.93;;;6.35;;
49015;SDS011;34830;44.064;12.566;2022-11-25T04:04:49;11.02;;;6.85;;
49015;SDS011;34830;44.064;12.566;2022-11-25T04:07:16;14.40;;;7.28;;
49015;SDS011;34830;44.064;12.566;2022-11-25T04:09:42;14.18;;;8.30;;
49015;SDS011;34830;44.064;12.566;2022-11-25T04:12:10;12.75;;;6.90;;
49015;SDS011;34830;44.064;12.566;2022-11-25T04:15:03;11.27;;;6.60;;
49015;SDS011;34830;44.064;12.566;2022-11-25T04:17:29;11.45;;;5.80;;
49015;SDS011;34830;44.064;12.566;2022-11-25T04:19:55;12.93;;;7.95;;
49015;SDS011;34830;44.064;12.566;2022-11-25T04:22:22;11.77;;;6.75;;
49015;SDS011;34830;44.064;12.566;2022-11-25T04:24:49;11.30;;;6.50;;
49015;SDS011;34830;44.064;12.566;2022-11-25T04:27:20;9.80;;;6.38;;
49015;SDS011;34830;44.064;12.566;2022-11-25T04:29:47;6.38;;;4.20;;
49015;SDS011;34830;44.064;12.566;2022-11-25T04:32:14;8.30;;;3.42;;
49015;SDS011;34830;44.064;12.566;2022-11-25T04:34:40;5.28;;;2.80;;
49015;SDS011;34830;44.064;12.566;2022-11-25T04:37:07;11.05;;;4.13;;
49015;SDS011;34830;44.064;12.566;2022-11-25T04:39:35;8.38;;;3.83;;
49015;SDS011;34830;44.064;12.566;2022-11-25T04:42:08;7.78;;;3.00;;
49015;SDS011;34830;44.064;12.566;2022-11-25T04:44:53;5.78;;;2.70;;
49015;SDS011;34830;44.064;12.566;2022-11-25T04:47:19;7.22;;;3.35;;
49015;SDS011;34830;44.064;12.566;2022-11-25T04:49:45;4.78;;;2.47;;
49015;SDS011;34830;44.064;12.566;2022-11-25T04:52:11;5.00;;;2.80;;
49015;SDS011;34830;44.064;12.566;2022-11-25T04:54:37;5.13;;;2.65;;
49015;SDS011;34830;44.064;12.566;2022-11-25T04:57:03;4.78;;;3.00;;
49015;SDS011;34830;44.064;12.566;2022-11-25T04:59:30;3.95;;;2.47;;
49015;SDS011;34830;44.064;12.566;2022-11-25T05:02:18;4.65;;;2.53;;
49015;SDS011;34830;44.064;12.566;2022-11-25T05:04:59;5.82;;;2.53;;
49015;SDS011;34830;44.064;12.566;2022-11-25T05:07:25;5.95;;;3.08;;
49015;SDS011;34830;44.064;12.566;2022-11-25T05:09:54;5.78;;;2.85;;
49015;SDS011;34830;44.064;12.566;2022-11-25T05:12:41;8.98;;;2.67;;
49015;SDS011;34830;44.064;12.566;2022-11-25T05:15:11;5.68;;;3.22;;
49015;SDS011;34830;44.064;12.566;2022-11-25T05:17:40;4.70;;;2.92;;
49015;SDS011;34830;44.064;12.566;2022-11-25T05:20:06;10.05;;;5.53;;
49015;SDS011;34830;44.064;12.566;2022-11-25T05:22:33;12.60;;;3.08;;
49015;SDS011;34830;44.064;12.566;2022-11-25T05:25:01;3.63;;;2.53;;
49015;SDS011;34830;44.064;12.566;2022-11-25T05:27:30;6.07;;;3.15;;
49015;SDS011;34830;44.064;12.566;2022-11-25T05:30:00;5.45;;;2.53;;
49015;SDS011;34830;44.064;12.566;2022-11-25T05:32:26;14.05;;;3.40;;
49015;SDS011;34830;44.064;12.566;2022-11-25T05:34:55;6.75;;;3.50;;
49015;SDS011;34830;44.064;12.566;2022-11-25T05:37:22;5.15;;;3.10;;
49015;SDS011;34830;44.064;12.566;2022-11-25T05:39:53;5.38;;;2.92;;
49015;SDS011;34830;44.064;12.566;2022-11-25T05:42:37;5.72;;;3.40;;
49015;SDS011;34830;44.064;12.566;2022-11-25T05:45:06;6.45;;;2.85;;
49015;SDS011;34830;44.064;12.566;2022-11-25T05:47:34;10.57;;;4.03;;
49015;SDS011;34830;44.064;12.566;2022-11-25T05:50:01;7.03;;;3.53;;
49015;SDS011;34830;44.064;12.566;2022-11-25T05:52:28;8.45;;;3.65;;
49015;SDS011;34830;44.064;12.566;2022-11-25T05:54:57;9.98;;;3.72;;
49015;SDS011;34830;44.064;12.566;2022-11-25T05:57:23;11.90;;;3.15;;
49015;SDS011;34830;44.064;12.566;2022-11-25T05:59:53;6.15;;;3.45;;
49015;SDS011;34830;44.064;12.566;2022-11-25T06:02:39;10.38;;;3.50;;
49015;SDS011;34830;44.064;12.566;2022-11-25T06:05:06;6.03;;;3.42;;
49015;SDS011;34830;44.064;12.566;2022-11-25T06:07:32;11.13;;;3.50;;
49015;SDS011;34830;44.064;12.566;2022-11-25T06:09:58;4.70;;;3.22;;
49015;SDS011;34830;44.064;12.566;2022-11-25T06:12:24;7.95;;;3.70;;
49015;SDS011;34830;44.064;12.566;2022-11-25T06:14:50;5.18;;;3.30;;
49015;SDS011;34830;44.064;12.566;2022-11-25T06:17:16;7.00;;;3.55;;
49015;SDS011;34830;44.064;12.566;2022-11-25T06:20:01;9.32;;;3.85;;
49015;SDS011;34830;44.064;12.566;2022-11-25T06:22:28;17.05;;;5.13;;
49015;SDS011;34830;44.064;12.566;2022-11-25T06:24:55;10.25;;;5.93;;
49015;SDS011;34830;44.064;12.566;2022-11-25T06:27:21;11.02;;;5.10;;
49015;SDS011;34830;44.064;12.566;2022-11-25T06:29:48;13.30;;;4.55;;
49015;SDS011;34830;44.064;12.566;2022-11-25T06:32:14;11.35;;;5.38;;
49015;SDS011;34830;44.064;12.566;2022-11-25T06:34:43;11.93;;;4.25;;
49015;SDS011;34830;44.064;12.566;2022-11-25T06:37:20;8.35;;;4.38;;
49015;SDS011;34830;44.064;12.566;2022-11-25T06:39:46;9.35;;;4.63;;
49015;SDS011;34830;44.064;12.566;2022-11-25T06:42:12;9.93;;;4.32;;
49015;SDS011;34830;44.064;12.566;2022-11-25T06:44:38;12.00;;;5.15;;
49015;SDS011;34830;44.064;12.566;2022-11-25T06:47:04;11.25;;;5.15;;
49015;SDS011;34830;44.064;12.566;2022-11-25T06:49:30;7.45;;;4.22;;
49015;SDS011;34830;44.064;12.566;2022-11-25T06:51:56;12.02;;;4.63;;
49015;SDS011;34830;44.064;12.566;2022-11-25T06:54:22;6.70;;;4.18;;
49015;SDS011;34830;44.064;12.566;2022-11-25T06:56:49;13.05;;;4.70;;
49015;SDS011;34830;44.064;12.566;2022-11-25T06:59:21;9.00;;;5.30;;
49015;SDS011;34830;44.064;12.566;2022-11-25T07:01:47;10.07;;;5.20;;
49015;SDS011;34830;44.064;12.566;2022-11-25T07:04:13;9.95;;;4.95;;
49015;SDS011;34830;44.064;12.566;2022-11-25T07:06:39;10.57;;;6.45;;
49015;SDS011;34830;44.064;12.566;2022-11-25T07:09:05;8.32;;;4.85;;
49015;SDS011;34830;44.064;12.566;2022-11-25T07:11:33;11.35;;;5.63;;
49015;SDS011;34830;44.064;12.566;2022-11-25T07:14:04;14.50;;;5.35;;
49015;SDS011;34830;44.064;12.566;2022-11-25T07:16:32;9.27;;;6.05;;
49015;SDS011;34830;44.064;12.566;2022-11-25T07:18:59;13.30;;;5.90;;
49015;SDS011;34830;44.064;12.566;2022-11-25T07:21:26;14.07;;;5.85;;
49015;SDS011;34830;44.064;12.566;2022-11-25T07:23:54;12.00;;;6.53;;
49015;SDS011;34830;44.064;12.566;2022-11-25T07:26:21;16.50;;;6.45;;
49015;SDS011;34830;44.064;12.566;2022-11-25T07:28:49;11.30;;;6.40;;
49015;SDS011;34830;44.064;12.566;2022-11-25T07:31:23;12.73;;;5.68;;
49015;SDS011;34830;44.064;12.566;2022-11-25T07:33:52;11.38;;;5.82;;
49015;SDS011;34830;44.064;12.566;2022-11-25T07:36:19;16.98;;;6.43;;
49015;SDS011;34830;44.064;12.566;2022-11-25T07:38:45;21.60;;;7.13;;
49015;SDS011;34830;44.064;12.566;2022-11-25T07:41:12;15.32;;;7.18;;
49015;SDS011;34830;44.064;12.566;2022-11-25T07:43:39;12.00;;;6.28;;
49015;SDS011;34830;44.064;12.566;2022-11-25T07:48:39;11.85;;;6.97;;
49015;SDS011;34830;44.064;12.566;2022-11-25T07:51:13;10.40;;;6.47;;
49015;SDS011;34830;44.064;12.566;2022-11-25T07:53:49;18.95;;;7.70;;
49015;SDS011;34830;44.064;12.566;2022-11-25T07:56:16;12.95;;;7.22;;
49015;SDS011;34830;44.064;12.566;2022-11-25T07:58:42;14.90;;;7.53;;
49015;SDS011;34830;44.064;12.566;2022-11-25T08:01:10;15.38;;;7.75;;
49015;SDS011;34830;44.064;12.566;2022-11-25T08:03:37;17.88;;;7.15;;
49015;SDS011;34830;44.064;12.566;2022-11-25T08:06:08;16.58;;;7.18;;
49015;SDS011;34830;44.064;12.566;2022-11-25T08:11:11;21.23;;;8.95;;
49015;SDS011;34830;44.064;12.566;2022-11-25T08:13:39;17.35;;;8.88;;
49015;SDS011;34830;44.064;12.566;2022-11-25T08:16:05;20.27;;;9.05;;
49015;SDS011;34830;44.064;12.566;2022-11-25T08:18:32;14.02;;;7.13;;
49015;SDS011;34830;44.064;12.566;2022-11-25T08:20:59;30.63;;;16.45;;
49015;SDS011;34830;44.064;12.566;2022-11-25T08:23:25;17.80;;;7.65;;
49015;SDS011;34830;44.064;12.566;2022-11-25T08:25:52;14.48;;;8.80;;
49015;SDS011;34830;44.064;12.566;2022-11-25T08:28:18;18.67;;;8.63;;
49015;SDS011;34830;44.064;12.566;2022-11-25T08:30:44;11.88;;;6.22;;
49015;SDS011;34830;44.064;12.566;2022-11-25T08:33:10;14.05;;;5.28;;
49015;SDS011;34830;44.064;12.566;2022-11-25T08:35:36;17.42;;;8.10;;
49015;SDS011;34830;44.064;12.566;2022-11-25T08:38:07;16.95;;;6.63;;
49015;SDS011;34830;44.064;12.566;2022-11-25T08:40:34;12.93;;;7.03;;
49015;SDS011;34830;44.064;12.566;2022-11-25T08:43:01;24.10;;;8.45;;
49015;SDS011;34830;44.064;12.566;2022-11-25T08:45:28;17.05;;;8.73;;
49015;SDS011;34830;44.064;12.566;2022-11-25T08:47:55;17.40;;;7.32;;
49015;SDS011;34830;44.064;12.566;2022-11-25T08:50:21;18.40;;;7.40;;
49015;SDS011;34830;44.064;12.566;2022-11-25T08:52:49;16.63;;;6.75;;
49015;SDS011;34830;44.064;12.566;2022-11-25T08:55:15;15.88;;;7.30;;
49015;SDS011;34830;44.064;12.566;2022-11-25T08:57:41;12.55;;;6.32;;
49015;SDS011;34830;44.064;12.566;2022-11-25T09:00:07;22.52;;;7.70;;
49015;SDS011;34830;44.064;12.566;2022-11-25T09:02:34;11.90;;;5.85;;
49015;SDS011;34830;44.064;12.566;2022-11-25T09:05:00;12.27;;;6.07;;
49015;SDS011;34830;44.064;12.566;2022-11-25T09:07:26;18.65;;;8.52;;
49015;SDS011;34830;44.064;12.566;2022-11-25T09:09:52;12.90;;;6.55;;
49015;SDS011;34830;44.064;12.566;2022-11-25T09:12:18;18.42;;;6.40;;
49015;SDS011;34830;44.064;12.566;2022-11-25T09:14:45;22.05;;;14.30;;
49015;SDS011;34830;44.064;12.566;2022-11-25T09:17:11;11.23;;;6.25;;
49015;SDS011;34830;44.064;12.566;2022-11-25T09:19:37;14.88;;;6.65;;
49015;SDS011;34830;44.064;12.566;2022-11-25T09:22:04;10.48;;;7.07;;
49015;SDS011;34830;44.064;12.566;2022-11-25T09:24:30;13.88;;;6.60;;
49015;SDS011;34830;44.064;12.566;2022-11-25T09:26:56;17.27;;;6.72;;
49015;SDS011;34830;44.064;12.566;2022-11-25T09:29:22;15.13;;;6.35;;
49015;SDS011;34830;44.064;12.566;2022-11-25T09:31:48;13.15;;;5.63;;
49015;SDS011;34830;44.064;12.566;2022-11-25T09:34:15;18.20;;;7.00;;
49015;SDS011;34830;44.064;12.566;2022-11-25T09:36:42;9.25;;;5.03;;
49015;SDS011;34830;44.064;12.566;2022-11-25T09:39:09;12.25;;;5.72;;
49015;SDS011;34830;44.064;12.566;2022-11-25T09:53:04;13.25;;;6.13;;
49015;SDS011;34830;44.064;12.566;2022-11-25T09:55:49;10.13;;;5.90;;
49015;SDS011;34830;44.064;12.566;2022-11-25T10:00:50;12.68;;;5.68;;
49015;SDS011;34830;44.064;12.566;2022-11-25T10:06:19;14.97;;;6.77;;
49015;SDS011;34830;44.064;12.566;2022-11-25T10:08:47;10.25;;;6.90;;
49015;SDS011;34830;44.064;12.566;2022-11-25T10:14:07;16.02;;;7.50;;
49015;SDS011;34830;44.064;12.566;2022-11-25T10:16:44;18.17;;;7.38;;
49015;SDS011;34830;44.064;12.566;2022-11-25T10:21:56;28.45;;;9.15;;
49015;SDS011;34830;44.064;12.566;2022-11-25T10:24:22;20.95;;;8.63;;
49015;SDS011;34830;44.064;12.566;2022-11-25T10:26:54;18.98;;;7.57;;
49015;SDS011;34830;44.064;12.566;2022-11-25T10:29:27;26.15;;;10.65;;
49015;SDS011;34830;44.064;12.566;2022-11-25T10:32:10;15.43;;;8.23;;
49015;SDS011;34830;44.064;12.566;2022-11-25T10:34:57;16.77;;;8.60;;
49015;SDS011;34830;44.064;12.566;2022-11-25T10:37:27;16.50;;;9.52;;
49015;SDS011;34830;44.064;12.566;2022-11-25T10:39:55;18.83;;;11.20;;
49015;SDS011;34830;44.064;12.566;2022-11-25T10:42:23;17.33;;;10.55;;
49015;SDS011;34830;44.064;12.566;2022-11-25T10:44:51;17.80;;;11.73;;
49015;SDS011;34830;44.064;12.566;2022-11-25T10:52:55;20.25;;;12.27;;
49015;SDS011;34830;44.064;12.566;2022-11-25T10:55:25;23.63;;;12.52;;
49015;SDS011;34830;44.064;12.566;2022-11-25T10:57:53;20.58;;;12.65;;
49015;SDS011;34830;44.064;12.566;2022-11-25T11:02:48;19.10;;;12.70;;
49015;SDS011;34830;44.064;12.566;2022-11-25T11:08:06;24.00;;;16.05;;
49015;SDS011;34830;44.064;12.566;2022-11-25T11:10:43;26.30;;;15.05;;
49015;SDS011;34830;44.064;12.566;2022-11-25T11:13:25;27.05;;;17.27;;
49015;SDS011;34830;44.064;12.566;2022-11-25T11:15:57;28.90;;;17.63;;
49015;SDS011;34830;44.064;12.566;2022-11-25T11:18:25;34.20;;;17.75;;
49015;SDS011;34830;44.064;12.566;2022-11-25T11:21:07;26.98;;;17.92;;
49015;SDS011;34830;44.064;12.566;2022-11-25T11:23:49;25.35;;;18.67;;
49015;SDS011;34830;44.064;12.566;2022-11-25T11:26:21;51.95;;;19.33;;
49015;SDS011;34830;44.064;12.566;2022-11-25T11:28:56;25.08;;;18.65;;
49015;SDS011;34830;44.064;12.566;2022-11-25T11:31:36;26.00;;;17.95;;
49015;SDS011;34830;44.064;12.566;2022-11-25T11:37:07;27.70;;;17.75;;
49015;SDS011;34830;44.064;12.566;2022-11-25T11:45:58;31.30;;;19.90;;
49015;SDS011;34830;44.064;12.566;2022-11-25T11:51:00;33.03;;;23.48;;
49015;SDS011;34830;44.064;12.566;2022-11-25T11:53:39;32.90;;;21.20;;
49015;SDS011;34830;44.064;12.566;2022-11-25T11:56:20;31.33;;;20.67;;
49015;SDS011;34830;44.064;12.566;2022-11-25T12:01:43;29.15;;;20.55;;
49015;SDS011;34830;44.064;12.566;2022-11-25T12:09:54;31.70;;;21.20;;
49015;SDS011;34830;44.064;12.566;2022-11-25T12:12:38;35.85;;;22.80;;
49015;SDS011;34830;44.064;12.566;2022-11-25T12:15:11;29.08;;;21.15;;
49015;SDS011;34830;44.064;12.566;2022-11-25T12:18:01;33.80;;;21.73;;
49015;SDS011;34830;44.064;12.566;2022-11-25T12:26:57;33.92;;;22.67;;
49015;SDS011;34830;44.064;12.566;2022-11-25T12:30:02;29.90;;;21.77;;
49015;SDS011;34830;44.064;12.566;2022-11-25T12:36:05;33.88;;;21.92;;
49015;SDS011;34830;44.064;12.566;2022-11-25T12:38:53;35.08;;;22.27;;
49015;SDS011;34830;44.064;12.566;2022-11-25T12:41:41;31.15;;;20.45;;
49015;SDS011;34830;44.064;12.566;2022-11-25T12:46:51;34.33;;;23.13;;
49015;SDS011;34830;44.064;12.566;2022-11-25T13:00:00;31.73;;;22.77;;
49015;SDS011;34830;44.064;12.566;2022-11-25T13:17:17;34.72;;;24.20;;
49015;SDS011;34830;44.064;12.566;2022-11-25T13:19:43;36.25;;;25.00;;
49015;SDS011;34830;44.064;12.566;2022-11-25T13:24:44;36.63;;;24.98;;
49015;SDS011;34830;44.064;12.566;2022-11-25T13:29:56;36.20;;;25.13;;
49015;SDS011;34830;44.064;12.566;2022-11-25T13:32:24;37.30;;;26.10;;
49015;SDS011;34830;44.064;12.566;2022-11-25T13:35:39;32.50;;;24.58;;
49015;SDS011;34830;44.064;12.566;2022-11-25T13:37:46;38.33;;;25.83;;
49015;SDS011;34830;44.064;12.566;2022-11-25T13:40:20;32.78;;;25.10;;
49015;SDS011;34830;44.064;12.566;2022-11-25T13:45:25;35.28;;;24.02;;
49015;SDS011;34830;44.064;12.566;2022-11-25T13:47:55;32.80;;;23.20;;
49015;SDS011;34830;44.064;12.566;2022-11-25T13:50:30;36.65;;;25.33;;
49015;SDS011;34830;44.064;12.566;2022-11-25T13:53:00;35.28;;;23.67;;
49015;SDS011;34830;44.064;12.566;2022-11-25T13:55:33;34.47;;;25.08;;
49015;SDS011;34830;44.064;12.566;2022-11-25T14:09:09;37.33;;;25.10;;
49015;SDS011;34830;44.064;12.566;2022-11-25T14:20:01;42.22;;;25.77;;
49015;SDS011;34830;44.064;12.566;2022-11-25T14:26:06;38.28;;;27.00;;
49015;SDS011;34830;44.064;12.566;2022-11-25T14:28:31;35.58;;;26.35;;
49015;SDS011;34830;44.064;12.566;2022-11-25T14:31:20;37.30;;;26.08;;
49015;SDS011;34830;44.064;12.566;2022-11-25T14:39:55;41.47;;;27.20;;
49015;SDS011;34830;44.064;12.566;2022-11-25T14:42:25;34.33;;;26.65;;
49015;SDS011;34830;44.064;12.566;2022-11-25T14:44:53;32.92;;;25.55;;
49015;SDS011;34830;44.064;12.566;2022-11-25T14:47:22;40.28;;;27.05;;
49015;SDS011;34830;44.064;12.566;2022-11-25T14:49:53;32.45;;;24.92;;
49015;SDS011;34830;44.064;12.566;2022-11-25T14:52:21;34.08;;;24.98;;
49015;SDS011;34830;44.064;12.566;2022-11-25T14:54:49;32.15;;;25.13;;
49015;SDS011;34830;44.064;12.566;2022-11-25T14:57:18;38.50;;;26.73;;
49015;SDS011;34830;44.064;12.566;2022-11-25T14:59:45;36.22;;;25.60;;
49015;SDS011;34830;44.064;12.566;2022-11-25T15:02:22;37.40;;;26.98;;
49015;SDS011;34830;44.064;12.566;2022-11-25T15:05:12;45.22;;;27.75;;
49015;SDS011;34830;44.064;12.566;2022-11-25T15:07:42;34.95;;;26.40;;
49015;SDS011;34830;44.064;12.566;2022-11-25T15:10:30;36.35;;;25.27;;
49015;SDS011;34830;44.064;12.566;2022-11-25T15:15:49;37.22;;;26.10;;
49015;SDS011;34830;44.064;12.566;2022-11-25T15:18:17;39.63;;;25.92;;
49015;SDS011;34830;44.064;12.566;2022-11-25T15:20:49;39.53;;;28.67;;
49015;SDS011;34830;44.064;12.566;2022-11-25T15:23:19;40.70;;;28.95;;
49015;SDS011;34830;44.064;12.566;2022-11-25T15:25:50;39.17;;;27.77;;
49015;SDS011;34830;44.064;12.566;2022-11-25T15:28:17;42.13;;;29.92;;
49015;SDS011;34830;44.064;12.566;2022-11-25T15:31:00;44.25;;;29.30;;
49015;SDS011;34830;44.064;12.566;2022-11-25T15:33:27;43.88;;;30.33;;
49015;SDS011;34830;44.064;12.566;2022-11-25T15:35:53;46.47;;;32.72;;
49015;SDS011;34830;44.064;12.566;2022-11-25T15:38:40;52.38;;;32.63;;
49015;SDS011;34830;44.064;12.566;2022-11-25T15:41:51;47.88;;;30.63;;
49015;SDS011;34830;44.064;12.566;2022-11-25T15:43:59;43.83;;;29.97;;
49015;SDS011;34830;44.064;12.566;2022-11-25T15:46:27;46.08;;;29.85;;
49015;SDS011;34830;44.064;12.566;2022-11-25T15:48:54;44.58;;;28.27;;
49015;SDS011;34830;44.064;12.566;2022-11-25T15:56:31;60.17;;;39.30;;
49015;SDS011;34830;44.064;12.566;2022-11-25T15:58:58;54.03;;;35.45;;
49015;SDS011;34830;44.064;12.566;2022-11-25T16:01:26;49.67;;;35.10;;
49015;SDS011;34830;44.064;12.566;2022-11-25T16:03:53;43.45;;;31.73;;
49015;SDS011;34830;44.064;12.566;2022-11-25T16:06:34;41.38;;;32.60;;
49015;SDS011;34830;44.064;12.566;2022-11-25T16:09:01;43.90;;;32.88;;
49015;SDS011;34830;44.064;12.566;2022-11-25T16:11:28;45.75;;;31.83;;
49015;SDS011;34830;44.064;12.566;2022-11-25T16:14:15;48.83;;;32.20;;
49015;SDS011;34830;44.064;12.566;2022-11-25T16:16:47;51.78;;;31.33;;
49015;SDS011;34830;44.064;12.566;2022-11-25T16:19:15;45.08;;;30.35;;
49015;SDS011;34830;44.064;12.566;2022-11-25T16:21:45;41.53;;;29.60;;
49015;SDS011;34830;44.064;12.566;2022-11-25T16:27:13;51.08;;;34.10;;
49015;SDS011;34830;44.064;12.566;2022-11-25T16:32:19;46.92;;;33.28;;
49015;SDS011;34830;44.064;12.566;2022-11-25T16:34:46;53.10;;;34.88;;
49015;SDS011;34830;44.064;12.566;2022-11-25T16:37:12;50.40;;;36.08;;
49015;SDS011;34830;44.064;12.566;2022-11-25T16:39:39;54.60;;;35.50;;
49015;SDS011;34830;44.064;12.566;2022-11-25T16:42:05;55.13;;;34.65;;
49015;SDS011;34830;44.064;12.566;2022-11-25T16:44:32;59.30;;;36.63;;
49015;SDS011;34830;44.064;12.566;2022-11-25T16:46:59;53.22;;;35.22;;
49015;SDS011;34830;44.064;12.566;2022-11-25T16:49:27;52.25;;;37.00;;
49015;SDS011;34830;44.064;12.566;2022-11-25T16:51:54;52.50;;;36.15;;
49015;SDS011;34830;44.064;12.566;2022-11-25T16:54:21;48.60;;;35.38;;
49015;SDS011;34830;44.064;12.566;2022-11-25T16:56:48;58.55;;;36.90;;
49015;SDS011;34830;44.064;12.566;2022-11-25T16:59:31;57.40;;;37.90;;
49015;SDS011;34830;44.064;12.566;2022-11-25T17:02:02;50.97;;;34.08;;
49015;SDS011;34830;44.064;12.566;2022-11-25T17:04:30;57.00;;;38.78;;